Ottawa, Canada
Current Conditions -  °F | °C
As of 8:00 PM on Friday 24 Oct 2014 (Local Time) from CYOW Reporting Station
Few Clouds Few Clouds  
Wind Chill: 50°   Ceiling: Unl
Heat Index: 50°   Visibility: 15mi
Dew Point: 37°   Wind: 5mph
Humidity: 62%   Direction: 260°W
Pressure: 29.84"   Gusts: NA
Location:  45.42°N, 75.69°W
Report Text: CYOW 250000Z 26004KT 15SM FEW100 10/03 A2984 RMK AC1 AC TR SLP107
Loading
Personal Weather Stations






























Interactive Weather Map
Tropical Storm Tracking
New forecast layout! Learn more

10-Day Weather Forecast

Advertisements
Track Severe Weather on mobile